METAR Data
IDs: Format: Raw Decoded Include TAF

Data at: 1916 UTC 26 Sep 2021

METAR for:KBBP (Bennettsville/Marlbo, SC, US)
Text:KBBP 261915Z AUTO 31006KT 10SM CLR 25/12 A3008 RMK AO2
Temperature: 25.0°C ( 77°F)
Dewpoint: 12.0°C ( 54°F) [RH = 44%]
Pressure (altimeter):30.08 inches Hg (1018.7 mb)
Winds:from the NW (310 degrees) at 7 MPH (6 knots; 3.1 m/s)
Visibility:10 or more sm (16+ km)
Ceiling:at least 12,000 feet AGL
Clouds:sky clear below 12,000 feet AGL
QC Flag:automated observation with no human augmentation

TAF for:KBBP (Bennettsville/Marlbo, SC, US)
Text:No data found